createdAt,value
2019-01-08T00:00:36.429Z,-8.23
2019-01-08T00:03:05.062Z,-8.15
2019-01-08T00:05:33.729Z,-8.10
2019-01-08T00:08:02.228Z,-8.13
2019-01-08T00:10:30.853Z,-8.21
2019-01-08T00:12:59.909Z,-8.22
2019-01-08T00:15:28.486Z,-8.17
2019-01-08T00:17:57.042Z,-8.16
2019-01-08T00:20:25.697Z,-8.10
2019-01-08T00:22:54.324Z,-8.10
2019-01-08T00:25:33.165Z,-8.08
2019-01-08T00:27:53.085Z,-8.18
2019-01-08T00:30:21.710Z,-8.13
2019-01-08T00:32:50.201Z,-8.12
2019-01-08T00:35:18.880Z,-8.03
2019-01-08T00:37:47.505Z,-7.98
2019-01-08T00:40:16.030Z,-7.98
2019-01-08T00:42:44.568Z,-8.02
2019-01-08T00:45:13.195Z,-7.97
2019-01-08T00:47:41.832Z,-7.97
2019-01-08T00:50:10.507Z,-7.94
2019-01-08T00:52:39.038Z,-7.97
2019-01-08T00:55:07.668Z,-8.02
2019-01-08T00:57:39.216Z,-7.97
2019-01-08T01:00:09.619Z,-7.92
2019-01-08T01:02:38.206Z,-7.86
2019-01-08T01:05:07.020Z,-7.85
2019-01-08T01:07:35.655Z,-7.86
2019-01-08T01:10:05.477Z,-7.77
2019-01-08T01:12:34.151Z,-7.77
2019-01-08T01:15:02.652Z,-7.81
2019-01-08T01:17:31.145Z,-7.73
2019-01-08T01:19:59.810Z,-7.79
2019-01-08T01:22:28.444Z,-7.78
2019-01-08T01:24:57.014Z,-7.75
2019-01-08T01:27:25.555Z,-7.64
2019-01-08T01:29:54.288Z,-7.68
2019-01-08T01:32:22.921Z,-7.71
2019-01-08T01:34:51.527Z,-7.77
2019-01-08T01:37:20.144Z,-7.72
2019-01-08T01:39:48.774Z,-7.73
2019-01-08T01:42:17.459Z,-7.67
2019-01-08T01:44:45.951Z,-7.59
2019-01-08T01:47:14.454Z,-7.57
2019-01-08T01:49:43.107Z,-7.56
2019-01-08T01:52:11.681Z,-7.59
2019-01-08T01:54:40.240Z,-7.49
2019-01-08T01:57:08.891Z,-7.54
2019-01-08T01:59:37.540Z,-7.58
2019-01-08T02:02:06.164Z,-7.57
2019-01-08T02:04:34.821Z,-7.48
2019-01-08T02:07:03.533Z,-7.51
2019-01-08T02:09:32.024Z,-7.38
2019-01-08T02:12:00.612Z,-7.50
2019-01-08T02:14:29.248Z,-7.41
2019-01-08T02:16:57.872Z,-7.39
2019-01-08T02:19:26.479Z,-7.35
2019-01-08T02:21:55.038Z,-7.50
2019-01-08T02:24:23.657Z,-7.47
2019-01-08T02:26:52.504Z,-7.40
2019-01-08T02:29:20.999Z,-7.41
2019-01-08T02:31:49.637Z,-7.44
2019-01-08T02:34:18.181Z,-7.44
2019-01-08T02:36:46.683Z,-7.42
2019-01-08T02:39:15.317Z,-7.34
2019-01-08T02:41:44.038Z,-7.32
2019-01-08T02:44:12.654Z,-7.23
2019-01-08T02:46:41.466Z,-7.18
2019-01-08T02:49:10.359Z,-7.24
2019-01-08T02:51:38.982Z,-7.19
2019-01-08T02:54:07.491Z,-7.27
2019-01-08T02:56:36.085Z,-7.25
2019-01-08T02:59:04.725Z,-7.20
2019-01-08T03:01:33.400Z,-7.21
2019-01-08T03:04:01.952Z,-7.14
2019-01-08T03:06:30.511Z,-7.20
2019-01-08T03:08:59.189Z,-7.15
2019-01-08T03:11:27.801Z,-7.28
2019-01-08T03:13:56.439Z,-7.18
2019-01-08T03:16:25.072Z,-7.13
2019-01-08T03:18:53.751Z,-7.19
2019-01-08T03:21:22.375Z,-7.15
2019-01-08T03:23:51.072Z,-7.21
2019-01-08T03:26:19.727Z,-7.23
2019-01-08T03:28:48.215Z,-7.18
2019-01-08T03:31:16.800Z,-7.10
2019-01-08T03:33:45.472Z,-7.09
2019-01-08T03:36:14.116Z,-7.06
2019-01-08T03:38:42.596Z,-7.08
2019-01-08T03:41:11.113Z,-7.18
2019-01-08T03:43:39.753Z,-7.23
2019-01-08T03:46:08.382Z,-7.13
2019-01-08T03:48:36.980Z,-7.18
2019-01-08T03:51:05.609Z,-7.08
2019-01-08T03:53:34.177Z,-7.11
2019-01-08T03:56:02.773Z,-7.14
2019-01-08T03:58:31.407Z,-7.09
2019-01-08T04:01:00.037Z,-7.12
2019-01-08T04:03:28.578Z,-7.09
2019-01-08T04:05:57.206Z,-7.09
2019-01-08T04:08:25.836Z,-7.00
2019-01-08T04:10:54.520Z,-7.11
2019-01-08T04:13:23.025Z,-7.12
2019-01-08T04:15:51.665Z,-7.04
2019-01-08T04:18:20.350Z,-7.06
2019-01-08T04:20:48.978Z,-7.05
2019-01-08T04:23:17.480Z,-7.10
2019-01-08T04:25:46.139Z,-7.09
2019-01-08T04:28:14.842Z,-7.15
2019-01-08T04:30:43.407Z,-7.14
2019-01-08T04:33:12.097Z,-7.08
2019-01-08T04:35:40.716Z,-7.15
2019-01-08T04:38:09.215Z,-7.16
2019-01-08T04:40:37.732Z,-7.16
2019-01-08T04:43:06.358Z,-7.14
2019-01-08T04:45:34.978Z,-7.17
2019-01-08T04:48:03.514Z,-7.23
2019-01-08T04:50:32.118Z,-7.18
2019-01-08T04:53:00.765Z,-7.07
2019-01-08T04:55:29.453Z,-7.11
2019-01-08T04:57:57.948Z,-7.09
2019-01-08T05:00:26.503Z,-7.10
2019-01-08T05:02:55.180Z,-7.04
2019-01-08T05:05:23.820Z,-7.12
2019-01-08T05:07:52.311Z,-7.16
2019-01-08T05:10:20.843Z,-7.16
2019-01-08T05:12:49.467Z,-7.14
2019-01-08T05:15:18.094Z,-7.03
2019-01-08T05:17:46.695Z,-7.03
2019-01-08T05:20:15.192Z,-7.05
2019-01-08T05:22:43.822Z,-7.00
2019-01-08T05:25:12.515Z,-7.04
2019-01-08T05:27:41.076Z,-7.04
2019-01-08T05:30:10.988Z,-6.96
2019-01-08T05:32:39.663Z,-6.98
2019-01-08T05:35:08.299Z,-6.91
2019-01-08T05:37:36.867Z,-7.01
2019-01-08T05:40:07.448Z,-6.94
2019-01-08T05:42:36.087Z,-6.88
2019-01-08T05:45:05.631Z,-6.83
2019-01-08T05:47:34.176Z,-6.86
2019-01-08T05:50:02.818Z,-6.89
2019-01-08T05:52:31.296Z,-6.90
2019-01-08T05:54:59.835Z,-6.72
2019-01-08T05:57:28.480Z,-6.80
2019-01-08T05:59:57.210Z,-6.67
2019-01-08T06:02:25.898Z,-6.72
2019-01-08T06:04:54.386Z,-6.86
2019-01-08T06:07:23.027Z,-6.81
2019-01-08T06:09:51.724Z,-6.82
2019-01-08T06:12:20.277Z,-6.84
2019-01-08T06:14:48.779Z,-6.92
2019-01-08T06:17:17.458Z,-6.75
2019-01-08T06:19:46.081Z,-6.93
2019-01-08T06:22:14.566Z,-6.99
2019-01-08T06:24:43.104Z,-6.98
2019-01-08T06:27:11.748Z,-6.94
2019-01-08T06:29:40.428Z,-6.87
2019-01-08T06:32:09.097Z,-6.92
2019-01-08T06:34:37.886Z,-6.89
2019-01-08T06:37:06.521Z,-6.94
2019-01-08T06:39:35.054Z,-6.86
2019-01-08T06:42:03.844Z,-6.77
2019-01-08T06:44:32.509Z,-6.63
2019-01-08T06:47:01.044Z,-6.64
2019-01-08T06:49:29.552Z,-6.64
2019-01-08T06:51:58.172Z,-6.56
2019-01-08T06:54:26.852Z,-6.46
2019-01-08T06:56:55.419Z,-6.53
2019-01-08T06:59:26.754Z,-6.47
2019-01-08T07:01:55.456Z,-6.57
2019-01-08T07:04:24.093Z,-6.61
2019-01-08T07:06:52.658Z,-6.58
2019-01-08T07:09:21.398Z,-6.31
2019-01-08T07:11:50.093Z,-6.44
2019-01-08T07:14:18.595Z,-6.45
2019-01-08T07:16:47.266Z,-6.36
2019-01-08T07:19:15.905Z,-6.20
2019-01-08T07:21:44.627Z,-6.20
2019-01-08T07:24:13.234Z,-6.00
2019-01-08T07:26:41.874Z,-5.99
2019-01-08T07:29:10.507Z,-6.08
2019-01-08T07:31:39.036Z,-6.08
2019-01-08T07:34:07.546Z,-6.18
2019-01-08T07:36:36.177Z,-6.00
2019-01-08T07:39:05.439Z,-6.08
2019-01-08T07:41:33.932Z,-5.89
2019-01-08T07:44:02.558Z,-6.04
2019-01-08T07:46:31.234Z,-5.98
2019-01-08T07:48:59.744Z,-5.82
2019-01-08T07:51:28.372Z,-5.75
2019-01-08T07:53:57.067Z,-5.75
2019-01-08T07:56:25.627Z,-5.59
2019-01-08T07:58:54.226Z,-5.59
2019-01-08T08:01:22.913Z,-5.70
2019-01-08T08:03:51.533Z,-5.68
2019-01-08T08:06:20.034Z,-5.69
2019-01-08T08:08:48.670Z,-5.43
2019-01-08T08:11:17.305Z,-5.35
2019-01-08T08:13:45.933Z,-5.10
2019-01-08T08:21:47.171Z,-4.80
2019-01-08T08:24:15.726Z,-4.47
2019-01-08T08:26:44.352Z,-4.63
2019-01-08T08:29:13.018Z,-4.51
2019-01-08T08:31:41.582Z,-4.57
2019-01-08T08:34:10.147Z,-4.50
2019-01-08T08:36:38.706Z,-4.47
2019-01-08T08:39:07.339Z,-4.16
2019-01-08T08:41:35.970Z,-3.78
2019-01-08T08:44:04.713Z,-3.53
2019-01-08T08:46:33.220Z,-3.72
2019-01-08T08:49:01.779Z,-3.68
2019-01-08T08:51:30.558Z,-3.71
2019-01-08T08:53:59.195Z,-3.79
2019-01-08T08:56:27.824Z,-3.57
2019-01-08T08:58:56.427Z,-3.74
2019-01-08T09:01:25.060Z,-3.83
2019-01-08T09:03:53.618Z,-3.63
2019-01-08T09:06:22.143Z,-3.75
2019-01-08T09:08:50.728Z,-3.96
2019-01-08T09:11:19.291Z,-3.87
2019-01-08T09:13:47.881Z,-3.72
2019-01-08T09:16:16.515Z,-3.52
2019-01-08T09:18:45.248Z,-3.46
2019-01-08T09:21:13.785Z,-3.66
2019-01-08T09:23:42.414Z,-3.56
2019-01-08T09:26:11.037Z,-3.42
2019-01-08T09:28:39.731Z,-3.85
2019-01-08T09:31:15.362Z,-3.84
2019-01-08T09:33:38.642Z,-3.84
2019-01-08T09:36:07.319Z,-3.96
2019-01-08T09:38:35.883Z,-3.96
2019-01-08T09:41:04.442Z,-4.12
2019-01-08T09:43:33.054Z,-4.35
2019-01-08T09:46:01.687Z,-4.60
2019-01-08T09:48:30.342Z,-4.56
2019-01-08T09:50:58.949Z,-4.50
2019-01-08T09:53:27.575Z,-4.36
2019-01-08T09:55:56.273Z,-4.18
2019-01-08T09:58:24.973Z,-4.06
2019-01-08T10:00:53.595Z,-4.12
2019-01-08T10:03:22.144Z,-4.11
2019-01-08T10:05:50.751Z,-4.14
2019-01-08T10:08:19.379Z,-3.89
2019-01-08T10:10:48.000Z,-3.91
2019-01-08T10:13:16.668Z,-4.13
2019-01-08T10:15:45.275Z,-4.33
2019-01-08T10:18:13.828Z,-4.43
2019-01-08T10:20:42.490Z,-4.23
2019-01-08T10:23:11.056Z,-4.20
2019-01-08T10:25:39.616Z,-4.25
2019-01-08T10:28:08.218Z,-4.02
2019-01-08T10:30:36.854Z,-3.90
2019-01-08T10:33:05.422Z,-3.95
2019-01-08T10:35:33.954Z,-3.85
2019-01-08T10:38:02.515Z,-3.82
2019-01-08T10:40:31.156Z,-3.77
2019-01-08T10:42:59.849Z,-3.72
2019-01-08T10:45:28.481Z,-3.78
2019-01-08T10:47:58.099Z,-3.98
2019-01-08T10:50:26.770Z,-3.91
2019-01-08T10:52:58.314Z,-3.73
2019-01-08T10:55:26.983Z,-3.54
2019-01-08T10:57:55.666Z,-3.58
2019-01-08T11:00:24.451Z,-3.48
2019-01-08T11:02:53.129Z,-3.42
2019-01-08T11:05:21.755Z,-3.22
2019-01-08T11:07:50.398Z,-3.19
2019-01-08T11:10:18.962Z,-3.25
2019-01-08T11:12:47.555Z,-3.41
2019-01-08T11:15:16.193Z,-3.32
2019-01-08T11:17:44.773Z,-3.20
2019-01-08T11:20:13.451Z,-3.19
2019-01-08T11:22:42.016Z,-3.16
2019-01-08T11:25:10.642Z,-3.08
2019-01-08T11:27:39.240Z,-3.15
2019-01-08T11:30:08.470Z,-2.99
2019-01-08T11:32:37.028Z,-3.08
2019-01-08T11:35:05.696Z,-2.85
2019-01-08T11:37:34.256Z,-2.91
2019-01-08T11:40:02.816Z,-2.98
2019-01-08T11:42:31.439Z,-3.06
2019-01-08T11:45:00.184Z,-3.09
2019-01-08T11:47:28.695Z,-3.24
2019-01-08T11:49:57.364Z,-3.26
2019-01-08T11:52:25.932Z,-3.16
2019-01-08T11:54:54.493Z,-3.06
2019-01-08T11:57:23.118Z,-3.02
2019-01-08T11:59:51.734Z,-2.85
2019-01-08T12:02:20.412Z,-2.84
2019-01-08T12:04:48.931Z,-2.65
2019-01-08T12:07:18.796Z,-2.52
2019-01-08T12:09:47.612Z,-2.40
2019-01-08T12:12:16.206Z,-2.50
2019-01-08T12:14:44.684Z,-2.68
2019-01-08T12:17:13.238Z,-2.81
2019-01-08T12:19:41.913Z,-2.75
2019-01-08T12:22:10.568Z,-2.84
2019-01-08T12:24:39.097Z,-2.88
2019-01-08T12:27:07.720Z,-2.74
2019-01-08T12:29:36.340Z,-2.73
2019-01-08T12:32:06.284Z,-2.83
2019-01-08T12:34:35.250Z,-2.75
2019-01-08T12:37:03.957Z,-2.73
2019-01-08T12:39:32.456Z,-2.76
2019-01-08T12:42:01.073Z,-2.53
2019-01-08T12:44:29.692Z,-2.54
2019-01-08T12:46:58.316Z,-2.56
2019-01-08T12:49:26.967Z,-2.47
2019-01-08T12:51:55.592Z,-2.54
2019-01-08T12:54:24.219Z,-2.49
2019-01-08T12:56:53.100Z,-2.64
2019-01-08T12:59:21.587Z,-2.56
2019-01-08T13:01:50.216Z,-2.66
2019-01-08T13:04:18.918Z,-2.66
2019-01-08T13:06:47.551Z,-2.66
2019-01-08T13:09:16.106Z,-2.68
2019-01-08T13:11:44.771Z,-2.78
2019-01-08T13:14:13.326Z,-2.87
2019-01-08T13:16:43.961Z,-3.12
2019-01-08T13:19:12.298Z,-3.16
2019-01-08T13:21:40.859Z,-3.12
2019-01-08T13:24:09.409Z,-2.97
2019-01-08T13:26:38.022Z,-2.98
2019-01-08T13:29:06.655Z,-2.98
2019-01-08T13:31:35.224Z,-2.87
2019-01-08T13:34:03.819Z,-2.89
2019-01-08T13:36:32.383Z,-2.86
2019-01-08T13:39:01.109Z,-2.82
2019-01-08T13:41:29.794Z,-2.82
2019-01-08T13:43:58.365Z,-2.78
2019-01-08T13:46:26.934Z,-2.67
2019-01-08T13:48:55.555Z,-2.66
2019-01-08T13:51:24.127Z,-2.81
2019-01-08T13:53:52.764Z,-2.76
2019-01-08T13:56:21.443Z,-2.72
2019-01-08T13:58:49.940Z,-2.79
2019-01-08T14:01:18.661Z,-2.83
2019-01-08T14:03:47.324Z,-2.90
2019-01-08T14:06:15.894Z,-2.95
2019-01-08T14:08:44.386Z,-3.01
2019-01-08T14:11:13.077Z,-3.29
2019-01-08T14:13:41.716Z,-3.41
2019-01-08T14:16:10.397Z,-3.34
2019-01-08T14:18:38.998Z,-3.67
2019-01-08T14:21:07.734Z,-3.79
2019-01-08T14:23:36.410Z,-3.75
2019-01-08T14:26:05.192Z,-3.82
2019-01-08T14:28:33.730Z,-3.83
2019-01-08T14:31:02.431Z,-3.89
2019-01-08T14:36:06.914Z,-4.07
2019-01-08T14:38:35.553Z,-4.07
2019-01-08T14:41:04.203Z,-4.14
2019-01-08T14:43:32.742Z,-4.22
2019-01-08T14:46:01.306Z,-4.26
2019-01-08T14:48:29.940Z,-4.26
2019-01-08T14:50:58.622Z,-4.34
2019-01-08T14:53:27.119Z,-4.35
2019-01-08T14:55:55.689Z,-4.32
2019-01-08T14:58:24.355Z,-4.33
2019-01-08T15:00:53.009Z,-4.33
2019-01-08T15:03:21.574Z,-4.36
2019-01-08T15:05:50.089Z,-4.41
2019-01-08T15:08:18.727Z,-4.44
2019-01-08T15:10:47.319Z,-4.41
2019-01-08T15:13:15.966Z,-4.45
2019-01-08T15:15:44.604Z,-4.46
2019-01-08T15:18:13.096Z,-4.49
2019-01-08T15:20:41.692Z,-4.60
2019-01-08T15:23:10.339Z,-4.66
2019-01-08T15:25:38.972Z,-4.71
2019-01-08T15:28:07.600Z,-4.78
2019-01-08T15:30:36.158Z,-4.83
2019-01-08T15:33:04.802Z,-4.90
2019-01-08T15:35:33.468Z,-4.93
2019-01-08T15:38:01.959Z,-4.93
2019-01-08T15:40:30.532Z,-4.96
2019-01-08T15:42:59.308Z,-4.97
2019-01-08T15:45:28.151Z,-4.87
2019-01-08T15:47:56.786Z,-4.96
2019-01-08T15:50:25.418Z,-5.08
2019-01-08T15:52:54.050Z,-5.16
2019-01-08T15:55:22.690Z,-5.17
2019-01-08T15:57:51.255Z,-5.17
2019-01-08T16:00:19.890Z,-5.23
2019-01-08T16:02:48.519Z,-5.29
2019-01-08T16:05:17.207Z,-5.28
2019-01-08T16:07:45.710Z,-5.16
2019-01-08T16:10:14.278Z,-5.12
2019-01-08T16:12:42.946Z,-5.08
2019-01-08T16:15:11.577Z,-5.26
2019-01-08T16:17:40.210Z,-5.13
2019-01-08T16:20:08.870Z,-5.12
2019-01-08T16:22:37.532Z,-5.15
2019-01-08T16:25:06.155Z,-5.18
2019-01-08T16:27:34.807Z,-5.11
2019-01-08T16:30:03.621Z,-4.96
2019-01-08T16:32:32.135Z,-4.88
2019-01-08T16:35:00.614Z,-4.88
2019-01-08T16:37:29.340Z,-4.86
2019-01-08T16:39:57.985Z,-4.90
2019-01-08T16:42:26.612Z,-4.93
2019-01-08T16:44:55.218Z,-5.00
2019-01-08T16:47:23.911Z,-5.02
2019-01-08T16:49:52.567Z,-4.98
2019-01-08T16:52:21.176Z,-4.91
2019-01-08T16:54:49.815Z,-4.96
2019-01-08T16:57:18.456Z,-4.93
2019-01-08T16:59:47.115Z,-4.96
2019-01-08T17:02:15.625Z,-4.96
2019-01-08T17:04:44.121Z,-4.97
2019-01-08T17:07:12.794Z,-4.92
2019-01-08T17:09:41.353Z,-4.93
2019-01-08T17:12:09.992Z,-4.96
2019-01-08T17:14:38.678Z,-4.99
2019-01-08T17:17:07.349Z,-4.83
2019-01-08T17:19:35.897Z,-4.90
2019-01-08T17:22:05.497Z,-4.91
2019-01-08T17:24:34.161Z,-4.91
2019-01-08T17:27:02.753Z,-4.90
2019-01-08T17:29:31.323Z,-4.86
2019-01-08T17:31:59.949Z,-4.86
2019-01-08T17:34:28.569Z,-4.86
2019-01-08T17:36:57.064Z,-4.85
2019-01-08T17:39:25.700Z,-4.84
2019-01-08T17:41:54.377Z,-4.87
2019-01-08T17:44:22.927Z,-4.91
2019-01-08T17:46:51.556Z,-4.89
2019-01-08T17:49:20.244Z,-4.95
2019-01-08T17:51:48.793Z,-4.98
2019-01-08T17:54:17.543Z,-4.94
2019-01-08T17:56:52.300Z,-4.90
2019-01-08T17:59:20.934Z,-4.77
2019-01-08T18:01:52.048Z,-4.77
2019-01-08T18:04:20.688Z,-4.74
2019-01-08T18:06:49.325Z,-4.66
2019-01-08T18:09:17.915Z,-4.57
2019-01-08T18:11:46.487Z,-4.63
2019-01-08T18:14:15.128Z,-4.63
2019-01-08T18:16:43.760Z,-4.67
2019-01-08T18:19:12.448Z,-4.65
2019-01-08T18:21:41.032Z,-4.66
2019-01-08T18:24:09.586Z,-4.61
2019-01-08T18:26:38.256Z,-4.52
2019-01-08T18:29:07.008Z,-4.59
2019-01-08T18:31:35.634Z,-4.61
2019-01-08T18:34:04.402Z,-4.64
2019-01-08T18:36:32.885Z,-4.76
2019-01-08T18:39:01.447Z,-4.96
2019-01-08T18:41:30.077Z,-5.00
2019-01-08T18:43:58.679Z,-5.09
2019-01-08T18:46:27.331Z,-5.15
2019-01-08T18:48:55.883Z,-5.17
2019-01-08T18:51:24.579Z,-5.19
2019-01-08T18:53:53.213Z,-5.15
2019-01-08T18:56:21.719Z,-5.14
2019-01-08T18:58:50.320Z,-5.09
2019-01-08T19:01:18.945Z,-5.10
2019-01-08T19:03:47.508Z,-5.05
2019-01-08T19:06:16.103Z,-5.04
2019-01-08T19:09:19.839Z,-5.02
2019-01-08T19:11:48.453Z,-5.08
2019-01-08T19:14:18.485Z,-5.02
2019-01-08T19:16:47.124Z,-5.02
2019-01-08T19:19:16.206Z,-4.99
2019-01-08T19:21:44.849Z,-4.96
2019-01-08T19:24:13.427Z,-4.89
2019-01-08T19:26:42.090Z,-5.12
2019-01-08T19:29:10.655Z,-5.18
2019-01-08T19:31:39.239Z,-5.18
2019-01-08T19:34:09.388Z,-5.07
2019-01-08T19:36:38.332Z,-4.98
2019-01-08T19:39:07.881Z,-4.83
2019-01-08T19:41:36.477Z,-4.82
2019-01-08T19:44:05.101Z,-4.78
2019-01-08T19:46:33.687Z,-4.77
2019-01-08T19:49:02.360Z,-4.74
2019-01-08T19:51:31.186Z,-4.72
2019-01-08T19:53:59.752Z,-4.67
2019-01-08T19:56:28.278Z,-4.68
2019-01-08T19:58:56.925Z,-4.68
2019-01-08T20:01:32.793Z,-4.61
2019-01-08T20:04:03.534Z,-4.61
2019-01-08T20:06:31.748Z,-4.78
2019-01-08T20:09:01.373Z,-4.82
2019-01-08T20:11:30.234Z,-4.82
2019-01-08T20:13:58.799Z,-4.89
2019-01-08T20:16:27.298Z,-4.99
2019-01-08T20:18:56.193Z,-4.95
2019-01-08T20:21:24.820Z,-4.86
2019-01-08T20:23:53.559Z,-4.91
2019-01-08T20:26:22.191Z,-4.79
2019-01-08T20:28:50.797Z,-4.69
2019-01-08T20:31:19.481Z,-4.72
2019-01-08T20:33:48.052Z,-4.61
2019-01-08T20:36:16.691Z,-4.53
2019-01-08T20:38:45.369Z,-4.43
2019-01-08T20:41:14.051Z,-4.39
2019-01-08T20:43:42.565Z,-4.44
2019-01-08T20:46:11.237Z,-4.63
2019-01-08T20:48:39.797Z,-4.52
2019-01-08T20:51:08.293Z,-4.41
2019-01-08T20:53:36.891Z,-4.51
2019-01-08T20:56:05.521Z,-4.76
2019-01-08T20:58:34.090Z,-4.93
2019-01-08T21:01:02.922Z,-4.93
2019-01-08T21:03:31.474Z,-4.89
2019-01-08T21:06:00.109Z,-4.93
2019-01-08T21:08:28.747Z,-4.99
2019-01-08T21:10:57.246Z,-4.96
2019-01-08T21:13:25.814Z,-4.82
2019-01-08T21:15:54.475Z,-4.83
2019-01-08T21:18:23.030Z,-4.89
2019-01-08T21:20:51.747Z,-4.83
2019-01-08T21:23:20.350Z,-4.82
2019-01-08T21:25:48.991Z,-4.85
2019-01-08T21:28:17.548Z,-4.89
2019-01-08T21:30:46.292Z,-4.94
2019-01-08T21:33:14.863Z,-5.06
2019-01-08T21:35:43.489Z,-5.08
2019-01-08T21:38:12.165Z,-5.06
2019-01-08T21:40:40.721Z,-5.12
2019-01-08T21:43:09.365Z,-5.11
2019-01-08T21:45:37.960Z,-5.19
2019-01-08T21:48:06.511Z,-5.28
2019-01-08T21:50:35.250Z,-5.12
2019-01-08T21:53:03.896Z,-5.10
2019-01-08T21:55:32.530Z,-5.18
2019-01-08T21:58:01.208Z,-5.22
2019-01-08T22:00:29.844Z,-5.28
2019-01-08T22:02:58.585Z,-5.31
2019-01-08T22:05:27.254Z,-5.37
2019-01-08T22:07:55.977Z,-5.37
2019-01-08T22:10:24.595Z,-5.36
2019-01-08T22:12:53.260Z,-5.33
2019-01-08T22:15:21.830Z,-5.30
2019-01-08T22:17:50.408Z,-5.30
2019-01-08T22:20:19.263Z,-5.29
2019-01-08T22:22:52.611Z,-5.32
2019-01-08T22:25:18.112Z,-5.27
2019-01-08T22:27:46.894Z,-5.23
2019-01-08T22:30:15.534Z,-5.34
2019-01-08T22:32:44.265Z,-5.34
2019-01-08T22:35:12.948Z,-5.31
2019-01-08T22:37:41.571Z,-5.31
2019-01-08T22:40:10.206Z,-5.31
2019-01-08T22:42:39.822Z,-5.37
2019-01-08T22:45:08.655Z,-5.36
2019-01-08T22:47:37.305Z,-5.39
2019-01-08T22:50:07.952Z,-5.36
2019-01-08T22:52:37.821Z,-5.41
2019-01-08T22:55:06.994Z,-5.41
2019-01-08T22:57:36.671Z,-5.42
2019-01-08T23:00:09.842Z,-5.41
2019-01-08T23:02:38.767Z,-5.38
2019-01-08T23:05:10.964Z,-5.45
2019-01-08T23:07:37.970Z,-5.45
2019-01-08T23:10:07.215Z,-5.44
2019-01-08T23:12:35.868Z,-5.45
2019-01-08T23:15:05.800Z,-5.56
2019-01-08T23:17:34.416Z,-5.60
2019-01-08T23:20:03.326Z,-5.70
2019-01-08T23:22:31.969Z,-5.70
2019-01-08T23:25:00.609Z,-5.69
2019-01-08T23:27:29.277Z,-5.64
2019-01-08T23:29:57.918Z,-5.64
2019-01-08T23:32:26.489Z,-5.61
2019-01-08T23:34:55.335Z,-5.58
2019-01-08T23:37:23.962Z,-5.57
2019-01-08T23:39:52.589Z,-5.61
2019-01-08T23:47:41.694Z,-5.53
2019-01-08T23:50:10.422Z,-5.48
2019-01-08T23:52:42.015Z,-5.52
2019-01-08T23:55:10.819Z,-5.43
2019-01-08T23:57:41.458Z,-5.27
